Time;durP1;ratioP1;P1;durP2;ratioP2;P2;SDS_P1;SDS_P2;PMS_P1;PMS_P2;Temp;Humidity;BMP_temperature;BMP_pressure;BME280_temperature;BME280_humidity;BME280_pressure;Samples;Min_cycle;Max_cycle;Signal;HPM_P1;HPM_P2
2022/06/01 00:00:58;;;;;;;13.30;11.77;;;;;;;10.97;96.31;100628.69;5020294;28;20136;-82
2022/06/01 00:03:25;;;;;;;12.95;11.02;;;;;;;10.94;96.28;100626.38;5020298;28;20081;-82
2022/06/01 00:05:53;;;;;;;13.68;11.63;;;;;;;10.93;95.97;100619.50;5020229;28;20140;-82
2022/06/01 00:08:20;;;;;;;15.18;11.60;;;;;;;10.86;96.45;100629.81;5020439;28;20081;-82
2022/06/01 00:10:47;;;;;;;14.95;11.85;;;;;;;10.84;96.62;100629.16;5025609;28;20045;-82
2022/06/01 00:13:14;;;;;;;14.88;11.90;;;;;;;10.78;96.70;100621.94;5026185;28;20659;-82
2022/06/01 00:15:41;;;;;;;14.27;10.98;;;;;;;10.73;96.51;100621.56;5020807;28;20084;-82
2022/06/01 00:18:08;;;;;;;18.88;11.23;;;;;;;10.73;96.36;100626.00;5021561;28;20125;-81
2022/06/01 00:20:36;;;;;;;13.48;11.23;;;;;;;10.61;96.72;100621.03;5023360;28;20042;-82
2022/06/01 00:23:02;;;;;;;17.00;11.88;;;;;;;10.52;96.87;100616.72;5026812;28;20053;-82
2022/06/01 00:25:29;;;;;;;14.45;11.73;;;;;;;10.47;96.48;100626.00;5020254;28;20088;-82
2022/06/01 00:27:56;;;;;;;16.77;12.07;;;;;;;10.41;96.89;100613.53;5021564;28;20125;-81
2022/06/01 00:30:23;;;;;;;15.20;12.38;;;;;;;10.46;96.67;100616.53;5019685;28;20109;-82
2022/06/01 00:32:51;;;;;;;14.93;11.82;;;;;;;10.50;97.22;100620.47;5018801;28;20085;-82
2022/06/01 00:35:20;;;;;;;16.23;12.70;;;;;;;10.44;96.97;100616.66;5020484;28;20052;-82
2022/06/01 00:37:47;;;;;;;15.32;12.88;;;;;;;10.42;97.06;100615.19;5021874;28;20108;-82
2022/06/01 00:40:16;;;;;;;16.77;12.38;;;;;;;10.40;97.53;100627.63;5020712;28;20066;-82
2022/06/01 00:42:45;;;;;;;14.32;11.77;;;;;;;10.40;97.05;100622.41;5021220;28;20141;-82
2022/06/01 00:45:16;;;;;;;12.90;11.43;;;;;;;10.35;96.84;100625.47;5032749;23;20422;-81
2022/06/01 00:47:43;;;;;;;13.60;11.40;;;;;;;10.26;96.46;100621.16;5000174;28;20082;-81
2022/06/01 00:50:18;;;;;;;15.20;10.63;;;;;;;10.21;96.38;100624.25;5000224;28;20129;-80
2022/06/01 00:52:49;;;;;;;16.27;10.93;;;;;;;10.14;96.50;100615.34;5001272;28;20061;-82
2022/06/01 00:55:19;;;;;;;15.95;9.82;;;;;;;10.14;95.32;100617.94;5007434;28;20049;-81
2022/06/01 00:57:49;;;;;;;12.98;10.65;;;;;;;10.06;95.95;100625.72;5017811;28;20092;-81
2022/06/01 01:00:20;;;;;;;10.85;9.70;;;;;;;10.02;95.90;100627.00;5018554;28;20129;-81
2022/06/01 01:02:47;;;;;;;11.57;9.20;;;;;;;10.02;96.02;100624.41;5017134;28;20085;-81
2022/06/01 01:05:17;;;;;;;11.50;9.57;;;;;;;10.02;95.88;100624.41;5016737;28;20045;-78
2022/06/01 01:07:45;;;;;;;10.55;8.60;;;;;;;9.95;95.70;100633.81;5015638;28;20093;-80
2022/06/01 01:10:15;;;;;;;11.27;8.80;;;;;;;9.86;96.43;100629.50;5014334;28;20072;-82
2022/06/01 01:12:58;;;;;;;12.20;9.13;;;;;;;9.83;96.37;100629.81;5018193;28;20056;-79
2022/06/01 01:15:30;;;;;;;10.15;8.60;;;;;;;9.75;96.72;100637.59;5016717;28;20149;-77
2022/06/01 01:17:58;;;;;;;11.35;8.40;;;;;;;9.75;96.07;100632.34;5014041;28;20060;-78
2022/06/01 01:20:27;;;;;;;10.32;8.57;;;;;;;9.73;95.70;100629.06;5013871;28;20046;-79
2022/06/01 01:23:05;;;;;;;10.90;7.80;;;;;;;9.69;95.70;100622.50;5015616;28;20106;-78
2022/06/01 01:25:35;;;;;;;9.88;7.68;;;;;;;9.62;95.25;100617.88;5016821;28;20046;-80
2022/06/01 01:28:05;;;;;;;10.02;7.18;;;;;;;9.61;95.29;100620.63;5016773;28;20064;-80
2022/06/01 01:30:45;;;;;;;8.88;6.95;;;;;;;9.59;95.47;100623.41;5016967;28;20081;-79
2022/06/01 01:33:16;;;;;;;9.20;7.38;;;;;;;9.54;95.71;100615.19;5016726;28;20072;-79
2022/06/01 01:35:45;;;;;;;8.23;7.18;;;;;;;9.53;96.05;100631.00;5017083;28;20085;-79
2022/06/01 01:38:25;;;;;;;11.00;7.18;;;;;;;9.43;95.72;100618.03;5016898;28;20053;-80
2022/06/01 01:41:12;;;;;;;7.88;6.82;;;;;;;9.38;95.41;100615.06;5017273;28;20054;-82
2022/06/01 01:43:45;;;;;;;10.38;7.55;;;;;;;9.37;95.05;100612.59;5016508;28;20490;-79
2022/06/01 01:46:12;;;;;;;9.35;7.60;;;;;;;9.26;94.80;100608.41;5016972;28;20092;-80
2022/06/01 01:48:38;;;;;;;8.75;7.10;;;;;;;9.27;94.75;100612.66;5013764;28;20082;-80
2022/06/01 01:51:06;;;;;;;10.27;6.88;;;;;;;9.24;94.89;100615.56;5014056;28;20049;-78
2022/06/01 01:53:33;;;;;;;9.07;6.80;;;;;;;9.27;95.68;100617.88;5014374;28;20049;-80
2022/06/01 01:56:30;;;;;;;11.18;7.05;;;;;;;9.16;96.08;100615.47;5015224;28;20058;-81
2022/06/01 01:59:11;;;;;;;8.95;6.90;;;;;;;9.17;96.30;100611.88;5013979;28;20132;-79
2022/06/01 02:01:46;;;;;;;8.35;7.45;;;;;;;9.08;95.42;100618.00;5015530;28;20049;-79
2022/06/01 02:07:09;;;;;;;8.88;7.18;;;;;;;9.11;95.33;100607.25;5016137;28;20065;-78
2022/06/01 02:15:05;;;;;;;12.52;7.97;;;;;;;9.16;95.06;100618.06;5015319;28;20060;-78
2022/06/01 02:17:37;;;;;;;11.13;7.63;;;;;;;9.18;95.08;100618.75;5012893;28;20046;-80
2022/06/01 02:20:10;;;;;;;14.90;7.80;;;;;;;9.17;95.14;100609.28;5014736;28;20073;-79
2022/06/01 02:22:38;;;;;;;17.83;7.20;;;;;;;9.08;95.09;100610.97;5018120;28;20046;-79
2022/06/01 02:25:05;;;;;;;9.80;7.57;;;;;;;9.05;95.42;100619.09;5020032;28;20060;-78
2022/06/01 02:27:33;;;;;;;13.52;6.93;;;;;;;9.01;95.33;100612.53;5019531;28;20046;-81
2022/06/01 02:30:07;;;;;;;11.13;7.65;;;;;;;8.98;95.41;100625.88;5018045;28;20085;-77
2022/06/01 02:32:34;;;;;;;9.10;7.30;;;;;;;8.95;95.74;100624.41;5018442;28;20471;-79
2022/06/01 02:35:05;;;;;;;10.50;7.35;;;;;;;8.98;95.61;100618.84;5018177;28;20136;-79
2022/06/01 02:37:33;;;;;;;9.75;6.70;;;;;;;8.99;95.78;100630.94;5019067;28;20136;-79
2022/06/01 02:40:04;;;;;;;10.38;6.82;;;;;;;8.98;95.68;100629.31;5017759;28;20419;-78
2022/06/01 02:42:31;;;;;;;11.32;7.80;;;;;;;8.94;95.85;100632.38;5017640;28;20136;-77
2022/06/01 02:45:01;;;;;;;9.05;7.03;;;;;;;8.88;95.85;100638.16;5018089;28;20053;-78
2022/06/01 02:47:30;;;;;;;11.02;6.55;;;;;;;8.80;96.42;100638.06;5017970;28;20141;-78
2022/06/01 02:49:58;;;;;;;11.02;6.90;;;;;;;8.81;95.98;100637.91;5017440;28;20050;-78
2022/06/01 02:52:24;;;;;;;10.45;6.70;;;;;;;8.77;96.21;100641.78;5018495;28;20050;-77
2022/06/01 02:54:51;;;;;;;13.50;7.22;;;;;;;8.74;96.28;100638.63;5018698;28;20128;-80
2022/06/01 02:57:18;;;;;;;12.30;7.60;;;;;;;8.69;96.75;100639.06;5019209;28;20419;-79
2022/06/01 02:59:45;;;;;;;13.68;7.55;;;;;;;8.66;96.81;100639.34;5019522;28;20525;-79
2022/06/01 03:02:14;;;;;;;10.43;7.35;;;;;;;8.71;96.71;100644.97;5019811;28;20085;-79
2022/06/01 03:04:43;;;;;;;12.20;7.20;;;;;;;8.71;96.70;100639.75;5022109;28;20097;-84
2022/06/01 03:07:10;;;;;;;10.23;7.40;;;;;;;8.65;96.41;100637.69;5022078;28;20412;-86
2022/06/01 03:09:37;;;;;;;10.43;7.07;;;;;;;8.68;96.33;100642.63;5039192;28;20057;-90
2022/06/01 03:12:05;;;;;;;11.32;7.60;;;;;;;8.61;96.68;100646.78;5039474;28;20058;-87
2022/06/01 03:14:32;;;;;;;10.30;7.10;;;;;;;8.64;96.80;100651.72;5039121;28;20090;-88
2022/06/01 03:16:59;;;;;;;7.97;7.07;;;;;;;8.66;96.99;100657.59;5039159;28;20089;-87
2022/06/01 03:19:27;;;;;;;10.98;6.53;;;;;;;8.65;96.81;100656.78;5038710;28;20069;-83
2022/06/01 03:21:54;;;;;;;8.63;7.10;;;;;;;8.62;96.95;100658.84;5034714;28;20042;-78
2022/06/01 03:24:21;;;;;;;8.55;7.30;;;;;;;8.59;96.67;100659.13;5021664;28;20106;-78
2022/06/01 03:26:47;;;;;;;12.35;7.35;;;;;;;8.61;96.68;100662.44;5020815;28;20049;-77
2022/06/01 03:29:14;;;;;;;9.02;6.93;;;;;;;8.60;95.91;100659.00;5018717;28;20140;-83
2022/06/01 03:31:41;;;;;;;9.63;6.80;;;;;;;8.64;96.46;100660.34;5025470;28;20058;-85
2022/06/01 03:34:10;;;;;;;12.73;7.55;;;;;;;8.67;96.19;100663.66;5034467;28;20046;-81
2022/06/01 03:36:38;;;;;;;9.75;7.20;;;;;;;8.73;95.32;100671.72;5021402;28;20463;-79
2022/06/01 03:39:05;;;;;;;10.10;7.65;;;;;;;8.76;95.40;100668.84;5018578;28;20516;-81
2022/06/01 03:41:32;;;;;;;10.20;7.72;;;;;;;8.76;95.09;100666.22;5018917;28;20046;-79
2022/06/01 03:46:43;;;;;;;13.38;7.80;;;;;;;8.75;95.01;100663.75;5022292;28;20060;-81
2022/06/01 03:49:09;;;;;;;11.07;7.78;;;;;;;8.84;95.21;100671.56;5022244;28;20109;-80
2022/06/01 03:51:36;;;;;;;13.80;7.65;;;;;;;8.83;94.55;100680.34;5020385;28;20097;-80
2022/06/01 03:54:07;;;;;;;14.48;8.02;;;;;;;8.82;95.08;100678.69;5020144;28;20054;-83
2022/06/01 03:56:34;;;;;;;10.73;7.97;;;;;;;8.87;94.99;100679.09;5019511;28;20516;-82
2022/06/01 03:59:01;;;;;;;16.35;7.65;;;;;;;9.06;94.76;100667.72;5021526;28;20046;-82
2022/06/01 04:01:27;;;;;;;11.32;8.15;;;;;;;9.72;92.07;100658.78;5025975;28;20092;-81
2022/06/01 04:03:54;;;;;;;9.68;6.80;;;;;;;10.35;87.73;100676.97;5026567;28;20073;-81
2022/06/01 04:06:20;;;;;;;12.77;6.68;;;;;;;10.72;85.82;100677.50;5023350;28;20480;-81
2022/06/01 04:08:47;;;;;;;9.57;6.90;;;;;;;11.27;83.30;100691.00;5020085;28;20054;-79
2022/06/01 04:14:18;;;;;;;10.23;6.22;;;;;;;11.90;78.95;100663.44;4998024;28;20058;-80
2022/06/01 04:16:45;;;;;;;11.93;6.10;;;;;;;11.84;79.02;100666.69;5017629;28;20077;-82
2022/06/01 04:19:22;;;;;;;15.32;6.78;;;;;;;12.10;78.36;100683.13;5017986;28;20050;-80
2022/06/01 04:22:01;;;;;;;10.40;6.32;;;;;;;12.16;78.35;100684.25;5019080;28;20153;-80
2022/06/01 04:24:54;;;;;;;7.47;5.20;;;;;;;12.51;76.54;100669.94;5018786;28;20054;-81
2022/06/01 04:27:50;;;;;;;9.95;5.93;;;;;;;13.25;74.53;100698.41;5019512;28;20050;-80
2022/06/01 04:30:28;;;;;;;9.00;5.75;;;;;;;13.56;72.65;100693.16;5014412;28;20069;-82
2022/06/01 04:33:12;;;;;;;9.57;6.00;;;;;;;12.93;74.57;100694.09;5006318;28;20050;-82
2022/06/01 04:35:39;;;;;;;8.77;5.90;;;;;;;13.05;74.94;100688.47;5017767;28;20057;-79
2022/06/01 04:38:14;;;;;;;7.95;5.38;;;;;;;12.98;74.64;100692.75;5019840;28;20050;-80
2022/06/01 04:40:46;;;;;;;8.32;5.53;;;;;;;12.61;75.39;100674.00;5020547;28;20077;-80
2022/06/01 04:43:15;;;;;;;7.95;5.68;;;;;;;13.36;74.82;100697.22;5020608;28;20046;-84
2022/06/01 04:45:41;;;;;;;9.38;5.43;;;;;;;13.87;71.70;100668.63;5019676;28;20485;-80
2022/06/01 04:48:08;;;;;;;6.85;5.40;;;;;;;14.47;69.77;100691.47;5022720;28;20050;-81
2022/06/01 04:50:42;;;;;;;12.70;6.00;;;;;;;14.36;69.05;100668.19;5020141;28;20137;-83
2022/06/01 04:53:09;;;;;;;10.55;6.28;;;;;;;14.06;70.85;100696.25;5021109;28;20057;-82
2022/06/01 04:55:35;;;;;;;8.93;6.28;;;;;;;13.93;71.44;100678.44;5020309;28;20519;-82
2022/06/01 04:58:02;;;;;;;10.85;5.85;;;;;;;13.88;71.37;100686.03;5021068;28;20049;-81
2022/06/01 05:00:30;;;;;;;9.63;6.20;;;;;;;13.80;72.12;100681.66;5020910;28;20054;-82
2022/06/01 05:02:57;;;;;;;8.88;6.30;;;;;;;13.94;71.78;100667.75;5020100;28;20080;-80
2022/06/01 05:05:26;;;;;;;11.40;6.07;;;;;;;14.38;70.11;100689.88;5018305;28;20089;-80
2022/06/01 05:07:53;;;;;;;9.15;6.15;;;;;;;14.20;70.86;100679.69;5024136;28;20105;-79
2022/06/01 05:10:21;;;;;;;12.00;6.07;;;;;;;14.14;71.09;100689.13;5025059;28;20451;-84
2022/06/01 05:12:48;;;;;;;8.30;5.45;;;;;;;14.73;69.24;100685.75;5025430;28;20093;-79
2022/06/01 05:15:15;;;;;;;9.02;6.38;;;;;;;14.84;69.22;100691.41;5023386;28;20054;-82
2022/06/01 05:17:47;;;;;;;8.15;5.85;;;;;;;14.84;68.63;100691.41;5021893;28;20050;-80
2022/06/01 05:20:15;;;;;;;11.25;6.30;;;;;;;15.49;66.68;100695.84;5022866;28;20050;-81
2022/06/01 05:22:44;;;;;;;9.70;5.60;;;;;;;16.12;63.54;100694.22;5018418;28;20114;-80
2022/06/01 05:25:11;;;;;;;7.55;5.57;;;;;;;16.29;62.96;100686.03;5017605;28;20069;-85
2022/06/01 05:27:38;;;;;;;8.88;5.50;;;;;;;17.21;59.11;100689.22;5017702;28;20056;-81
2022/06/01 05:30:05;;;;;;;11.50;5.65;;;;;;;17.62;58.18;100697.06;5017169;28;20074;-81
2022/06/01 05:32:35;;;;;;;8.07;5.22;;;;;;;17.65;57.69;100694.06;5015880;28;20112;-78
2022/06/01 05:35:04;;;;;;;8.90;5.10;;;;;;;17.99;57.43;100701.03;5020549;28;20064;-82
2022/06/01 05:37:31;;;;;;;8.10;5.05;;;;;;;18.78;54.56;100693.03;5021753;28;20085;-82
2022/06/01 05:39:58;;;;;;;8.02;5.13;;;;;;;18.85;53.39;100693.03;5018480;28;20056;-81
2022/06/01 05:42:24;;;;;;;11.02;5.30;;;;;;;18.87;54.17;100696.28;5019043;28;20049;-80
2022/06/01 05:45:00;;;;;;;6.03;4.80;;;;;;;18.51;54.89;100696.72;5018130;28;20136;-82
2022/06/01 05:47:27;;;;;;;6.03;4.53;;;;;;;19.62;50.86;100699.22;5018375;28;20116;-84
2022/06/01 05:49:53;;;;;;;7.78;4.80;;;;;;;19.59;51.47;100710.28;5018845;28;20047;-82
2022/06/01 05:52:23;;;;;;;6.65;4.70;;;;;;;19.71;51.59;100698.78;5017880;28;20109;-83
2022/06/01 05:54:50;;;;;;;8.25;5.10;;;;;;;20.75;47.98;100711.41;5018306;28;20137;-84
2022/06/01 05:57:16;;;;;;;6.93;4.63;;;;;;;20.80;47.85;100713.38;5020798;28;20057;-85
2022/06/01 05:59:43;;;;;;;10.00;5.03;;;;;;;21.22;47.92;100709.06;5021636;28;20078;-84
2022/06/01 06:02:10;;;;;;;9.32;4.63;;;;;;;20.84;47.15;100714.56;5021640;28;20046;-82
2022/06/01 06:04:39;;;;;;;6.25;4.60;;;;;;;20.40;48.59;100712.97;5022113;28;20068;-84
2022/06/01 06:07:06;;;;;;;7.57;4.90;;;;;;;21.37;46.72;100716.63;5022947;28;20125;-84
2022/06/01 06:09:34;;;;;;;7.32;4.60;;;;;;;21.97;45.58;100727.25;5023150;28;20046;-84
2022/06/01 06:12:00;;;;;;;8.85;4.55;;;;;;;21.21;46.73;100718.06;5023149;28;20084;-84
2022/06/01 06:14:32;;;;;;;7.32;4.65;;;;;;;21.20;47.37;100724.41;5028830;28;20073;-82
2022/06/01 06:16:58;;;;;;;10.02;5.25;;;;;;;21.66;44.47;100733.66;5031716;28;20101;-82
2022/06/01 06:19:25;;;;;;;9.07;5.05;;;;;;;21.38;46.32;100727.03;5018892;28;20085;-82
2022/06/01 06:21:55;;;;;;;7.22;4.88;;;;;;;21.83;43.99;100718.63;5005505;28;20274;-81
2022/06/01 06:24:22;;;;;;;9.55;4.47;;;;;;;21.47;44.27;100725.72;5025069;28;20077;-83
2022/06/01 06:26:54;;;;;;;8.35;5.03;;;;;;;21.61;43.08;100715.69;5025665;28;20478;-78
2022/06/01 06:29:23;;;;;;;;;;;;;;;21.02;45.37;100724.41;5020995;28;20085;-79
2022/06/01 06:32:05;;;;;;;5.38;4.07;;;;;;;20.99;44.98;100727.50;5021799;28;19921;-80
2022/06/01 06:34:40;;;;;;;6.68;4.63;;;;;;;21.09;45.60;100717.97;5022008;28;20193;-80
2022/06/01 06:37:07;;;;;;;9.45;5.03;;;;;;;20.75;46.62;100719.38;5002820;28;20077;-81
2022/06/01 06:39:34;;;;;;;7.35;4.53;;;;;;;22.21;42.87;100725.47;5003117;28;20054;-81
2022/06/01 06:42:02;;;;;;;7.28;4.25;;;;;;;22.53;43.19;100713.44;5022661;28;20154;-80
2022/06/01 06:47:25;;;;;;;8.48;4.60;;;;;;;22.85;41.93;100711.22;1421374;26;20086;-80
2022/06/01 06:49:53;;;;;;;6.75;4.50;;;;;;;22.30;43.16;100698.22;5003375;28;20061;-81
2022/06/01 06:52:27;;;;;;;8.93;4.30;;;;;;;21.32;44.00;100703.19;5005571;28;20477;-81
2022/06/01 06:54:54;;;;;;;6.82;4.55;;;;;;;20.42;47.92;100692.28;5006523;28;20125;-81
2022/06/01 06:57:22;;;;;;;8.70;4.57;;;;;;;19.63;48.50;100690.25;5030977;28;20456;-82
2022/06/01 06:59:51;;;;;;;10.18;5.05;;;;;;;18.25;53.35;100708.19;5025498;28;20108;-79
2022/06/01 07:02:18;;;;;;;7.38;4.88;;;;;;;18.35;53.67;100723.66;5022425;28;20102;-80
2022/06/01 07:04:47;;;;;;;13.38;5.32;;;;;;;18.36;53.27;100723.47;5024953;28;20080;-81
2022/06/01 07:08:10;;;;;;;7.43;5.00;;;;;;;18.19;53.40;100695.75;5026020;28;20053;-82
2022/06/01 07:11:32;;;;;;;9.38;4.53;;;;;;;18.99;53.71;100730.91;4964641;29;20688;-78
2022/06/01 07:14:00;;;;;;;9.65;4.72;;;;;;;18.46;53.18;100718.53;4894500;29;20456;-81
2022/06/01 07:16:54;;;;;;;7.82;4.60;;;;;;;18.45;53.83;100729.34;4998605;23;20459;-79
2022/06/01 07:19:53;;;;;;;11.30;4.85;;;;;;;18.63;54.05;100720.81;4994306;28;20053;-80
2022/06/01 07:22:59;;;;;;;6.75;4.32;;;;;;;19.55;51.92;100718.66;5007680;28;20051;-82
2022/06/01 07:25:28;;;;;;;10.90;4.40;;;;;;;19.17;52.23;100723.91;5010416;28;20046;-82
2022/06/01 07:27:55;;;;;;;8.48;4.50;;;;;;;19.07;52.73;100738.63;5020647;23;20051;-89
2022/06/01 07:30:23;;;;;;;10.57;4.70;;;;;;;19.32;52.09;100741.41;5000451;28;20105;-90
2022/06/01 07:32:50;;;;;;;8.85;4.47;;;;;;;18.63;53.71;100744.66;5002612;28;20101;-90
2022/06/01 07:35:18;;;;;;;9.70;4.43;;;;;;;19.74;51.05;100740.00;5014235;28;20110;-89
2022/06/01 07:43:29;;;;;;;7.40;4.07;;;;;;;20.70;49.08;100739.69;4943346;29;20130;-90
2022/06/01 07:45:57;;;;;;;5.22;4.07;;;;;;;20.94;47.76;100756.63;4942118;29;20091;-90
2022/06/01 07:48:24;;;;;;;7.78;4.47;;;;;;;20.10;49.31;100755.28;4976680;28;20103;-90
2022/06/01 07:50:51;;;;;;;8.63;4.30;;;;;;;19.95;49.83;100744.97;5020694;28;20513;-90
2022/06/01 07:53:18;;;;;;;10.15;4.57;;;;;;;20.38;48.38;100752.22;5019108;28;20058;-89
2022/06/01 07:55:45;;;;;;;6.70;4.43;;;;;;;21.01;48.12;100754.69;5020249;28;20125;-91
2022/06/01 07:58:11;;;;;;;5.72;3.83;;;;;;;21.33;47.12;100761.50;5020260;28;20133;-90
2022/06/01 08:00:38;;;;;;;7.63;4.05;;;;;;;21.16;47.69;100752.50;5020811;28;20132;-90
2022/06/01 08:03:11;;;;;;;6.78;4.10;;;;;;;21.27;47.46;100758.94;5019529;28;20050;-90
2022/06/01 08:05:37;;;;;;;;;;;;;;;21.49;45.63;100758.25;5021007;28;20068;-90
2022/06/01 08:08:04;;;;;;;13.23;4.35;;;;;;;21.65;45.65;100754.16;5019257;28;20019;-91
2022/06/01 08:10:31;;;;;;;9.35;4.47;;;;;;;20.83;46.80;100753.66;5019938;28;20136;-89
2022/06/01 08:13:10;;;;;;;8.07;4.50;;;;;;;21.73;45.70;100750.38;5021834;28;20069;-90
2022/06/01 08:15:40;;;;;;;10.10;4.35;;;;;;;21.31;46.76;100752.94;5020241;28;20497;-90
2022/06/01 08:18:09;;;;;;;8.73;4.47;;;;;;;20.89;47.75;100754.59;5020941;28;20056;-90
2022/06/01 08:20:36;;;;;;;4.07;3.53;;;;;;;21.81;45.72;100766.81;5019912;28;20525;-91
2022/06/01 08:23:05;;;;;;;11.60;3.88;;;;;;;21.23;46.50;100755.91;5023190;28;20528;-90
2022/06/01 08:25:33;;;;;;;6.53;3.80;;;;;;;20.74;47.39;100756.84;5020871;28;20054;-90
2022/06/01 08:28:00;;;;;;;6.57;3.72;;;;;;;21.14;45.50;100763.34;5019468;28;20413;-89
2022/06/01 08:30:29;;;;;;;6.22;4.07;;;;;;;20.98;46.54;100757.81;5019267;28;20046;-90
2022/06/01 08:32:57;;;;;;;8.55;4.50;;;;;;;20.51;48.04;100760.09;5021826;28;20074;-89
2022/06/01 08:35:28;;;;;;;9.75;4.53;;;;;;;20.07;49.94;100775.13;5020302;28;20046;-89
2022/06/01 08:37:55;;;;;;;5.93;3.75;;;;;;;19.73;50.36;100759.63;5021591;28;20137;-89
2022/06/01 08:40:26;;;;;;;7.47;3.30;;;;;;;19.77;48.26;100764.28;5020264;28;20092;-89
2022/06/01 08:42:58;;;;;;;9.15;3.92;;;;;;;19.42;48.14;100753.19;5017954;28;20054;-89
2022/06/01 08:45:27;;;;;;;6.63;3.00;;;;;;;19.42;49.59;100758.50;5019007;28;20144;-88
2022/06/01 08:47:54;;;;;;;12.48;4.47;;;;;;;19.18;50.69;100762.69;5019730;28;20110;-89
2022/06/01 08:50:27;;;;;;;7.07;3.90;;;;;;;18.63;52.32;100769.31;5018823;28;20085;-89
2022/06/01 08:52:57;;;;;;;9.23;3.70;;;;;;;18.97;50.66;100765.59;5020678;28;20488;-89
2022/06/01 08:55:27;;;;;;;6.38;3.70;;;;;;;19.59;50.69;100758.88;5019279;28;20087;-88
2022/06/01 08:57:58;;;;;;;7.32;3.63;;;;;;;20.88;46.97;100768.94;5019552;28;20129;-89
2022/06/01 09:00:28;;;;;;;8.77;3.78;;;;;;;20.31;46.97;100762.09;5020053;28;20073;-90
2022/06/01 09:03:07;;;;;;;4.88;3.20;;;;;;;19.60;48.40;100765.00;5019905;28;20136;-89
2022/06/01 09:05:43;;;;;;;12.82;3.67;;;;;;;20.07;47.26;100764.50;5018205;28;20050;-89
2022/06/01 09:08:18;;;;;;;6.47;3.35;;;;;;;20.23;46.61;100762.34;5019086;28;20060;-89
2022/06/01 09:10:58;;;;;;;5.95;3.25;;;;;;;21.28;44.37;100753.38;5018974;28;20132;-89
2022/06/01 09:13:32;;;;;;;4.00;3.10;;;;;;;20.64;44.27;100749.34;5019011;28;20082;-90
2022/06/01 09:16:02;;;;;;;7.85;3.47;;;;;;;20.52;45.16;100748.44;5022120;28;20081;-89
2022/06/01 09:18:31;;;;;;;6.03;3.60;;;;;;;20.03;47.10;100762.50;5021163;28;20110;-89
2022/06/01 09:23:44;;;;;;;5.43;3.80;;;;;;;19.34;50.71;100748.16;5018245;28;19993;-88
2022/06/01 09:26:24;;;;;;;8.40;3.50;;;;;;;19.47;49.09;100750.72;5019106;28;20137;-88
2022/06/01 09:28:55;;;;;;;4.78;3.50;;;;;;;20.03;45.40;100760.66;5017758;28;20523;-87
2022/06/01 09:31:28;;;;;;;4.97;3.70;;;;;;;19.74;46.80;100754.09;5019351;28;20054;-88
2022/06/01 09:34:14;;;;;;;6.82;3.20;;;;;;;19.17;47.46;100754.94;5022256;28;20508;-88
2022/06/01 09:36:54;;;;;;;6.78;3.50;;;;;;;19.27;47.38;100750.00;5021993;28;20145;-88
2022/06/01 09:39:22;;;;;;;4.88;3.25;;;;;;;18.89;46.67;100758.69;5022260;28;20077;-89
2022/06/01 09:41:48;;;;;;;6.03;3.20;;;;;;;18.99;47.18;100754.78;5024180;28;20132;-88
2022/06/01 09:44:18;;;;;;;7.75;3.35;;;;;;;18.46;49.35;100754.81;5022274;28;20126;-88
2022/06/01 09:46:56;;;;;;;6.03;3.13;;;;;;;19.39;47.76;100764.22;5021042;28;20046;-88
2022/06/01 09:49:27;;;;;;;6.15;3.08;;;;;;;19.99;45.57;100748.81;5021326;28;20064;-88
2022/06/01 09:51:58;;;;;;;6.13;3.30;;;;;;;19.82;45.16;100748.53;5022096;28;20054;-89
2022/06/01 09:54:29;;;;;;;6.05;2.88;;;;;;;19.68;44.57;100748.81;5021174;28;20646;-89
2022/06/01 09:56:56;;;;;;;8.32;3.00;;;;;;;19.40;45.74;100765.84;5021421;28;20133;-88
2022/06/01 10:08:04;;;;;;;5.03;3.08;;;;;;;19.36;47.51;100769.16;5021155;28;20114;-88
2022/06/01 10:10:30;;;;;;;5.57;2.95;;;;;;;18.71;49.13;100763.00;5021722;28;20137;-89
2022/06/01 10:12:59;;;;;;;5.50;2.90;;;;;;;18.76;49.17;100764.00;5021851;28;20069;-88
2022/06/01 10:15:33;;;;;;;5.10;3.50;;;;;;;19.02;49.38;100746.41;5021817;28;20057;-88
2022/06/01 10:18:05;;;;;;;6.10;3.38;;;;;;;19.37;48.83;100776.09;5021536;28;20060;-89
2022/06/01 10:20:37;;;;;;;6.50;3.40;;;;;;;19.63;47.62;100764.56;5021465;28;20057;-88
2022/06/01 10:23:10;;;;;;;7.72;3.67;;;;;;;20.25;47.11;100769.09;5021952;28;20308;-89
2022/06/01 10:25:42;;;;;;;4.68;3.20;;;;;;;20.19;47.06;100769.94;5022109;28;20108;-89
2022/06/01 10:28:15;;;;;;;5.57;4.15;;;;;;;19.62;46.31;100769.06;5021322;28;20927;-88
2022/06/01 10:30:44;;;;;;;;;;;;;;;19.36;48.04;100775.28;5021336;28;20141;-88
2022/06/01 10:33:17;;;;;;;6.47;4.10;;;;;;;18.98;48.24;100766.41;5021141;28;20233;-88
2022/06/01 10:35:47;;;;;;;8.73;3.92;;;;;;;19.24;47.60;100766.34;5021877;28;20464;-88
2022/06/01 10:38:18;;;;;;;10.30;3.95;;;;;;;19.16;47.90;100772.69;5020461;28;20060;-89
2022/06/01 10:40:53;;;;;;;10.10;3.95;;;;;;;19.82;47.01;100775.09;5021127;28;20137;-89
2022/06/01 10:43:32;;;;;;;7.25;4.25;;;;;;;19.89;45.78;100783.00;5020957;28;20048;-88
2022/06/01 10:46:05;;;;;;;7.75;4.22;;;;;;;19.46;46.52;100772.16;5021561;28;20137;-88
2022/06/01 10:48:38;;;;;;;5.18;3.85;;;;;;;19.95;44.59;100771.53;5021004;28;20160;-89
2022/06/01 10:51:10;;;;;;;7.60;4.07;;;;;;;21.01;43.98;100765.34;5021504;28;20042;-89
2022/06/01 10:53:43;;;;;;;;;;;;;;;20.81;44.37;100757.56;5020924;28;20117;-89
2022/06/01 10:56:10;;;;;;;5.25;3.60;;;;;;;20.58;43.26;100758.19;5021808;28;19929;-89
2022/06/01 10:58:38;;;;;;;6.13;3.83;;;;;;;21.29;42.62;100754.19;5020076;28;20081;-88
2022/06/01 11:01:10;;;;;;;8.60;3.90;;;;;;;21.04;41.07;100756.91;5020243;28;20050;-89
2022/06/01 11:04:15;;;;;;;4.20;3.33;;;;;;;20.74;43.07;100757.66;5020781;28;20511;-89
2022/06/01 11:07:07;;;;;;;8.10;3.55;;;;;;;19.86;44.61;100755.03;5021934;28;20064;-89
2022/06/01 11:09:44;;;;;;;6.13;3.42;;;;;;;20.14;43.40;100752.00;5021454;28;20038;-89
2022/06/01 11:12:23;;;;;;;8.80;3.70;;;;;;;20.68;44.33;100757.72;5020537;28;20050;-89
2022/06/01 11:15:06;;;;;;;5.95;3.70;;;;;;;20.09;45.75;100746.50;5021992;28;20053;-89
2022/06/01 11:17:41;;;;;;;6.38;3.80;;;;;;;19.86;46.98;100746.25;5027940;28;20089;-90
2022/06/01 11:20:38;;;;;;;5.43;4.13;;;;;;;19.89;46.71;100757.25;5027503;28;20085;-86
2022/06/01 11:23:26;;;;;;;9.35;3.80;;;;;;;19.80;44.02;100755.09;5019925;28;20089;-86
2022/06/01 11:26:02;;;;;;;9.77;3.50;;;;;;;19.84;45.18;100764.25;5019489;28;20158;-87
2022/06/01 11:28:42;;;;;;;9.75;3.50;;;;;;;19.58;45.07;100762.53;5019302;28;20505;-86
2022/06/01 11:31:18;;;;;;;6.38;3.53;;;;;;;20.11;44.31;100756.91;5019350;28;20521;-87
2022/06/01 11:33:51;;;;;;;6.70;3.30;;;;;;;21.14;42.35;100757.22;5019397;28;20101;-87
2022/06/01 11:36:29;;;;;;;6.63;3.90;;;;;;;20.30;43.27;100755.16;5019336;28;20084;-87
2022/06/01 11:39:00;;;;;;;7.38;3.83;;;;;;;20.09;42.19;100758.97;5018991;28;20050;-87
2022/06/01 11:41:32;;;;;;;4.53;3.80;;;;;;;20.20;43.57;100753.78;5019464;28;20062;-86
2022/06/01 11:44:03;;;;;;;6.38;3.47;;;;;;;20.19;42.77;100757.47;5019558;28;20133;-87
2022/06/01 11:46:40;;;;;;;4.93;3.60;;;;;;;20.20;42.43;100745.00;5019492;28;20541;-86
2022/06/01 11:49:13;;;;;;;8.23;3.63;;;;;;;21.18;42.90;100742.44;5018832;28;20424;-87
2022/06/01 11:51:48;;;;;;;9.35;4.03;;;;;;;21.12;42.23;100738.81;5019960;28;20421;-84
2022/06/01 11:54:26;;;;;;;5.63;3.80;;;;;;;20.63;42.81;100755.69;5018713;28;20119;-87
2022/06/01 11:56:59;;;;;;;8.80;3.85;;;;;;;20.60;43.12;100748.16;5020380;28;20105;-87
2022/06/01 11:59:35;;;;;;;4.40;2.95;;;;;;;20.59;43.10;100753.69;5019124;28;20468;-87
2022/06/01 12:02:17;;;;;;;4.88;3.05;;;;;;;20.71;41.55;100743.97;5020135;28;20157;-87
2022/06/01 12:04:55;;;;;;;7.50;3.38;;;;;;;20.92;39.51;100738.22;5018978;28;20142;-87
2022/06/01 12:07:29;;;;;;;5.00;3.13;;;;;;;20.76;41.14;100739.63;5018979;28;20578;-87
2022/06/01 12:10:02;;;;;;;6.65;3.20;;;;;;;20.72;41.87;100742.94;5019455;28;20045;-87
2022/06/01 12:15:29;;;;;;;6.50;3.65;;;;;;;20.29;41.50;100737.59;5117933;27;20380;-86
2022/06/01 12:18:05;;;;;;;4.93;3.50;;;;;;;20.27;41.76;100743.13;5116104;28;20052;-87
2022/06/01 12:20:51;;;;;;;5.72;3.10;;;;;;;20.56;43.19;100749.63;5115679;28;20099;-86